Time;durP1;ratioP1;P1;durP2;ratioP2;P2;SDS_P1;SDS_P2;PMS_P1;PMS_P2;Temp;Humidity;BMP_temperature;BMP_pressure;BME280_temperature;BME280_humidity;BME280_pressure;Samples;Min_cycle;Max_cycle;Signal;HPM_P1;HPM_P2
2023/12/14 00:00:21;;;;;;;1.70;1.52;;;5.30;99.90;;;;;;4986914;28;20041;-80
2023/12/14 00:02:47;;;;;;;4.18;2.22;;;5.40;99.90;;;;;;5004981;28;20038;-79
2023/12/14 00:05:12;;;;;;;5.18;1.73;;;5.30;99.90;;;;;;5002297;28;20118;-77
2023/12/14 00:07:38;;;;;;;3.45;1.63;;;5.30;99.90;;;;;;4973287;28;20077;-78
2023/12/14 00:10:05;;;;;;;2.40;1.40;;;5.30;99.90;;;;;;4985140;28;20060;-78
2023/12/14 00:12:31;;;;;;;2.75;1.60;;;5.30;99.90;;;;;;5002953;28;20049;-80
2023/12/14 00:14:57;;;;;;;2.97;2.72;;;5.40;99.90;;;;;;5002696;28;20053;-79
2023/12/14 00:17:22;;;;;;;3.67;1.50;;;5.30;99.90;;;;;;5004073;28;20082;-77
2023/12/14 00:19:48;;;;;;;4.40;2.03;;;5.30;99.90;;;;;;5003210;28;20069;-78
2023/12/14 00:22:13;;;;;;;2.75;2.35;;;5.30;99.90;;;;;;5002286;28;20085;-77
2023/12/14 00:24:39;;;;;;;1.48;1.42;;;5.30;99.90;;;;;;5034544;28;20539;-78
2023/12/14 00:27:04;;;;;;;2.17;1.98;;;5.30;99.90;;;;;;4990121;28;20540;-80
2023/12/14 00:29:30;;;;;;;1.73;1.60;;;5.30;99.90;;;;;;4987192;28;20038;-79
2023/12/14 00:31:56;;;;;;;1.58;1.40;;;5.30;99.90;;;;;;4991599;28;20543;-78
2023/12/14 00:34:21;;;;;;;4.88;2.20;;;5.30;99.90;;;;;;4983588;28;20049;-77
2023/12/14 00:36:47;;;;;;;2.95;1.50;;;5.30;99.90;;;;;;5001467;28;20137;-77
2023/12/14 00:39:13;;;;;;;4.72;2.28;;;5.30;99.90;;;;;;5002722;28;20513;-79
2023/12/14 00:41:38;;;;;;;0.90;0.90;;;5.30;99.90;;;;;;5003821;28;20386;-80
2023/12/14 00:44:04;;;;;;;2.55;1.48;;;5.30;99.90;;;;;;5002659;28;20049;-79
2023/12/14 00:46:29;;;;;;;4.15;2.20;;;5.30;99.90;;;;;;5004041;28;20069;-78
2023/12/14 00:48:55;;;;;;;3.15;2.25;;;5.30;99.90;;;;;;4997801;28;20649;-77
2023/12/14 00:51:20;;;;;;;4.47;1.85;;;5.30;99.90;;;;;;4973382;28;20088;-77
2023/12/14 00:53:46;;;;;;;3.15;1.95;;;5.30;99.90;;;;;;4988152;28;20121;-79
2023/12/14 00:56:11;;;;;;;2.90;1.75;;;5.20;99.90;;;;;;5001867;28;20046;-80
2023/12/14 00:58:38;;;;;;;3.65;1.42;;;5.20;99.90;;;;;;4990244;28;20588;-80
2023/12/14 01:01:03;;;;;;;1.42;1.33;;;5.20;99.90;;;;;;4966131;28;20064;-79
2023/12/14 01:03:29;;;;;;;1.80;1.40;;;5.20;99.90;;;;;;4984248;28;20043;-76
2023/12/14 01:05:54;;;;;;;2.70;1.75;;;5.20;99.90;;;;;;4983849;28;20034;-76
2023/12/14 01:08:20;;;;;;;1.13;1.10;;;5.20;99.90;;;;;;4994810;28;20041;-78
2023/12/14 01:10:46;;;;;;;2.92;1.27;;;5.20;99.90;;;;;;5022174;28;20412;-78
2023/12/14 01:13:12;;;;;;;3.72;1.98;;;5.20;99.90;;;;;;4984988;28;20119;-76
2023/12/14 01:15:37;;;;;;;2.30;1.50;;;5.20;99.90;;;;;;4982381;28;20548;-79
2023/12/14 01:18:03;;;;;;;2.30;1.15;;;5.20;99.90;;;;;;4982002;28;20042;-78
2023/12/14 01:20:29;;;;;;;1.38;1.17;;;5.20;99.90;;;;;;4982573;28;20079;-76
2023/12/14 01:22:55;;;;;;;7.35;2.30;;;5.20;99.90;;;;;;4965650;28;20104;-76
2023/12/14 01:25:21;;;;;;;1.48;1.38;;;5.20;99.90;;;;;;4971438;28;20053;-80
2023/12/14 01:27:46;;;;;;;3.80;1.95;;;5.20;99.90;;;;;;5002039;28;20046;-78
2023/12/14 01:30:12;;;;;;;1.02;1.00;;;5.20;99.90;;;;;;4989338;28;20048;-77
2023/12/14 01:32:38;;;;;;;2.05;1.85;;;5.20;99.90;;;;;;4985592;28;20124;-77
2023/12/14 01:35:04;;;;;;;1.67;1.23;;;5.20;99.90;;;;;;5002137;28;20209;-77
2023/12/14 01:37:30;;;;;;;1.52;1.42;;;5.20;99.90;;;;;;5000883;28;20479;-78
2023/12/14 01:39:55;;;;;;;1.70;1.60;;;5.20;99.90;;;;;;4998500;28;20048;-72
2023/12/14 01:42:21;;;;;;;5.18;2.55;;;5.20;99.90;;;;;;4987701;28;20048;-81
2023/12/14 01:44:46;;;;;;;2.03;1.80;;;5.20;99.90;;;;;;5033350;28;20042;-77
2023/12/14 01:47:12;;;;;;;8.70;2.53;;;5.20;99.90;;;;;;5001101;28;20096;-77
2023/12/14 01:49:38;;;;;;;4.45;2.13;;;5.10;99.90;;;;;;4999604;28;20049;-78
2023/12/14 01:52:04;;;;;;;5.05;2.47;;;5.20;99.90;;;;;;4989713;28;20479;-80
2023/12/14 01:54:29;;;;;;;2.38;2.05;;;5.20;99.90;;;;;;4997583;28;20117;-75
2023/12/14 01:56:55;;;;;;;2.67;2.30;;;5.20;99.90;;;;;;4971352;28;20038;-80
2023/12/14 01:59:20;;;;;;;2.50;2.08;;;5.20;99.90;;;;;;4995229;28;20456;-78
2023/12/14 02:01:51;;;;;;;2.85;2.38;;;5.20;99.90;;;;;;4981954;28;20038;-77
2023/12/14 02:04:17;;;;;;;12.13;4.18;;;5.20;99.90;;;;;;4982329;28;20133;-79
2023/12/14 02:06:43;;;;;;;2.88;2.00;;;5.20;99.90;;;;;;4973333;28;20109;-80
2023/12/14 02:09:09;;;;;;;3.55;2.22;;;5.20;99.90;;;;;;4988766;28;20049;-78
2023/12/14 02:11:35;;;;;;;4.40;2.00;;;5.20;99.90;;;;;;5000492;28;20045;-76
2023/12/14 02:14:09;;;;;;;2.05;1.92;;;5.20;99.90;;;;;;5084689;22;20056;-77
2023/12/14 02:16:35;;;;;;;2.97;1.60;;;5.20;99.90;;;;;;4965605;28;20105;-81
2023/12/14 02:19:00;;;;;;;2.75;2.55;;;5.20;99.90;;;;;;4973663;28;20087;-77
2023/12/14 02:21:26;;;;;;;2.05;1.80;;;5.20;99.90;;;;;;4963394;28;20069;-79
2023/12/14 02:23:51;;;;;;;5.05;2.75;;;5.20;99.90;;;;;;4960351;28;20053;-78
2023/12/14 02:26:17;;;;;;;6.47;3.22;;;5.20;99.90;;;;;;4962668;28;20427;-78
2023/12/14 02:28:42;;;;;;;4.32;2.08;;;5.20;99.90;;;;;;4945898;28;20134;-80
2023/12/14 02:31:08;;;;;;;5.95;2.08;;;5.20;99.90;;;;;;4967143;28;20136;-80
2023/12/14 02:33:34;;;;;;;2.63;1.80;;;5.20;99.90;;;;;;4962812;28;20042;-76
2023/12/14 02:36:00;;;;;;;4.47;2.53;;;5.20;99.90;;;;;;4973236;28;20050;-78
2023/12/14 02:38:25;;;;;;;3.75;2.08;;;5.20;99.90;;;;;;4960981;28;20528;-75
2023/12/14 02:40:52;;;;;;;2.50;2.30;;;5.20;99.90;;;;;;4962400;28;20039;-80
2023/12/14 02:43:18;;;;;;;8.13;2.17;;;5.20;99.90;;;;;;4962585;28;20042;-78
2023/12/14 02:45:44;;;;;;;2.38;2.13;;;5.20;99.90;;;;;;4966868;28;20065;-78
2023/12/14 02:48:10;;;;;;;4.68;2.83;;;5.20;99.90;;;;;;4964021;28;20104;-74
2023/12/14 02:50:35;;;;;;;3.63;2.15;;;5.20;99.90;;;;;;4966341;28;20039;-78
2023/12/14 02:53:01;;;;;;;5.28;1.85;;;5.20;99.90;;;;;;4960010;28;20062;-77
2023/12/14 02:55:26;;;;;;;2.85;2.47;;;5.20;99.90;;;;;;4976503;28;20413;-80
2023/12/14 02:57:52;;;;;;;2.88;2.30;;;5.20;99.90;;;;;;4965702;28;20043;-75
2023/12/14 03:00:18;;;;;;;4.45;2.70;;;5.20;99.90;;;;;;4965585;28;20050;-77
2023/12/14 03:02:43;;;;;;;5.30;2.25;;;5.20;99.90;;;;;;4969616;28;20062;-77
2023/12/14 03:05:09;;;;;;;5.00;1.80;;;5.20;99.90;;;;;;4962078;28;20050;-79
2023/12/14 03:07:34;;;;;;;6.30;3.78;;;5.20;99.90;;;;;;4977701;28;20038;-76
2023/12/14 03:10:00;;;;;;;3.83;2.85;;;5.20;99.90;;;;;;4944377;28;20133;-80
2023/12/14 03:12:26;;;;;;;2.50;2.30;;;5.20;99.90;;;;;;4961597;28;20093;-79
2023/12/14 03:14:51;;;;;;;4.18;2.35;;;5.20;99.90;;;;;;4960921;28;20115;-79
2023/12/14 03:17:17;;;;;;;2.25;1.80;;;5.20;99.90;;;;;;4962293;28;20039;-77
2023/12/14 03:19:42;;;;;;;6.03;2.92;;;5.20;99.90;;;;;;4970723;28;20671;-76
2023/12/14 03:22:09;;;;;;;4.70;2.92;;;5.20;99.90;;;;;;4981441;28;20138;-78
2023/12/14 03:24:38;;;;;;;5.45;3.05;;;5.20;99.90;;;;;;4978988;28;20046;-80
2023/12/14 03:27:04;;;;;;;4.05;2.67;;;5.20;99.90;;;;;;4972544;28;20707;-77
2023/12/14 03:29:30;;;;;;;3.15;2.83;;;5.30;99.90;;;;;;4960791;28;20046;-77
2023/12/14 03:31:56;;;;;;;5.72;2.00;;;5.20;99.90;;;;;;4968946;28;20046;-77
2023/12/14 03:34:22;;;;;;;3.95;2.15;;;5.20;99.90;;;;;;4981142;28;20042;-76
2023/12/14 03:36:48;;;;;;;3.38;2.50;;;5.20;99.90;;;;;;4978170;28;20065;-80
2023/12/14 03:39:13;;;;;;;5.40;3.25;;;5.20;99.90;;;;;;4961793;28;20138;-81
2023/12/14 03:41:39;;;;;;;3.38;3.00;;;5.30;99.90;;;;;;4961888;28;20039;-76
2023/12/14 03:44:04;;;;;;;5.00;3.25;;;5.30;99.90;;;;;;4966451;28;20582;-77
2023/12/14 03:46:30;;;;;;;4.72;2.67;;;5.30;99.90;;;;;;4981769;28;20574;-77
2023/12/14 03:48:56;;;;;;;6.97;3.67;;;5.30;99.90;;;;;;4980983;28;20508;-76
2023/12/14 03:51:22;;;;;;;5.68;4.40;;;5.30;99.90;;;;;;4979616;28;20125;-80
2023/12/14 03:53:48;;;;;;;5.32;2.17;;;5.30;99.90;;;;;;4979314;28;20046;-73
2023/12/14 03:56:13;;;;;;;1.88;1.77;;;5.30;99.90;;;;;;4981456;28;20061;-75
2023/12/14 03:58:39;;;;;;;2.42;2.17;;;5.30;99.90;;;;;;4967747;28;20177;-75
2023/12/14 04:01:04;;;;;;;5.07;3.10;;;5.30;99.90;;;;;;4965477;28;20069;-76
2023/12/14 04:03:30;;;;;;;4.10;2.58;;;5.30;99.90;;;;;;4952786;28;20070;-78
2023/12/14 04:05:56;;;;;;;4.75;2.53;;;5.30;99.90;;;;;;4984137;28;20066;-78
2023/12/14 04:08:21;;;;;;;4.35;3.00;;;5.30;99.90;;;;;;4978119;28;20038;-76
2023/12/14 04:10:47;;;;;;;2.42;2.03;;;5.30;99.90;;;;;;4985384;28;20137;-76
2023/12/14 04:13:12;;;;;;;4.43;2.50;;;5.30;99.90;;;;;;4983166;28;20319;-77
2023/12/14 04:15:38;;;;;;;6.40;3.22;;;5.30;99.90;;;;;;4983951;28;20058;-75
2023/12/14 04:18:07;;;;;;;3.03;2.75;;;5.30;99.90;;;;;;4984450;28;20054;-79
2023/12/14 04:20:32;;;;;;;4.05;3.08;;;5.30;99.90;;;;;;4983441;28;20046;-79
2023/12/14 04:22:58;;;;;;;5.75;2.22;;;5.30;99.90;;;;;;4967022;28;20497;-74
2023/12/14 04:25:23;;;;;;;5.03;2.80;;;5.30;99.90;;;;;;4963731;28;20042;-76
2023/12/14 04:27:49;;;;;;;3.47;2.50;;;5.30;99.90;;;;;;4965835;28;20047;-76
2023/12/14 04:30:14;;;;;;;2.65;1.70;;;5.30;99.90;;;;;;4965577;28;20062;-73
2023/12/14 04:32:40;;;;;;;3.00;2.17;;;5.30;99.90;;;;;;4978706;28;20382;-78
2023/12/14 04:35:06;;;;;;;4.65;3.08;;;5.30;99.90;;;;;;4984420;28;20042;-79
2023/12/14 04:37:32;;;;;;;5.15;2.10;;;5.30;99.90;;;;;;4968522;28;20113;-76
2023/12/14 04:39:58;;;;;;;3.63;3.00;;;5.30;99.90;;;;;;4964844;28;20125;-77
2023/12/14 04:42:23;;;;;;;5.70;2.70;;;5.30;99.90;;;;;;4964372;28;20097;-76
2023/12/14 04:44:49;;;;;;;2.40;1.55;;;5.20;99.90;;;;;;4969801;28;20054;-78
2023/12/14 04:47:15;;;;;;;6.03;3.05;;;5.30;99.90;;;;;;4983679;28;20046;-79
2023/12/14 04:49:40;;;;;;;3.42;2.47;;;5.30;99.90;;;;;;4981093;28;20050;-76
2023/12/14 04:52:06;;;;;;;4.55;2.72;;;5.30;99.90;;;;;;4983726;28;20174;-77
2023/12/14 04:54:32;;;;;;;5.25;3.65;;;5.20;99.90;;;;;;4967896;28;20468;-77
2023/12/14 04:56:57;;;;;;;7.28;2.83;;;5.30;99.90;;;;;;4974019;28;20042;-75
2023/12/14 04:59:23;;;;;;;3.80;3.45;;;5.30;99.90;;;;;;4964385;28;20050;-78
2023/12/14 05:01:48;;;;;;;5.57;2.75;;;5.30;99.90;;;;;;4977670;28;20386;-78
2023/12/14 05:04:14;;;;;;;2.33;1.80;;;5.30;99.90;;;;;;4964380;28;20476;-79
2023/12/14 05:06:39;;;;;;;3.22;2.80;;;5.30;99.90;;;;;;4964651;28;20043;-75
2023/12/14 05:09:06;;;;;;;4.65;3.10;;;5.30;99.90;;;;;;4974492;28;20042;-77
2023/12/14 05:11:32;;;;;;;3.10;1.85;;;5.30;99.90;;;;;;4981550;28;20050;-75
2023/12/14 05:13:58;;;;;;;4.32;2.75;;;5.30;99.90;;;;;;4965677;28;20053;-79
2023/12/14 05:16:27;;;;;;;2.80;2.60;;;5.30;99.90;;;;;;4998206;28;20108;-78
2023/12/14 05:18:56;;;;;;;3.67;3.38;;;5.30;99.90;;;;;;4964395;28;20066;-73
2023/12/14 05:21:22;;;;;;;5.03;2.75;;;5.30;99.90;;;;;;4957665;28;20047;-76
2023/12/14 05:23:48;;;;;;;4.65;2.30;;;5.30;99.90;;;;;;4964058;28;20393;-74
2023/12/14 05:26:13;;;;;;;4.65;3.10;;;5.30;99.90;;;;;;4964899;28;20137;-79
2023/12/14 05:28:39;;;;;;;4.10;2.42;;;5.30;99.90;;;;;;4964529;28;20137;-77
2023/12/14 05:31:05;;;;;;;4.78;2.70;;;5.30;99.90;;;;;;4928906;29;20516;-73
2023/12/14 05:33:31;;;;;;;7.13;2.95;;;5.30;99.90;;;;;;4960759;28;20501;-76
2023/12/14 05:35:57;;;;;;;4.40;3.70;;;5.30;99.90;;;;;;4964170;28;20050;-77
2023/12/14 05:38:22;;;;;;;4.25;3.45;;;5.30;99.90;;;;;;4962018;28;20056;-77
2023/12/14 05:40:48;;;;;;;2.88;2.42;;;5.30;99.90;;;;;;4974073;28;20073;-79
2023/12/14 05:43:13;;;;;;;2.97;2.22;;;5.30;99.90;;;;;;4990607;28;20553;-78
2023/12/14 05:45:39;;;;;;;7.30;2.85;;;5.30;99.90;;;;;;4982125;28;20062;-75
2023/12/14 05:48:05;;;;;;;7.38;3.03;;;5.30;99.90;;;;;;4996610;28;20107;-76
2023/12/14 05:50:31;;;;;;;6.28;3.47;;;5.30;99.90;;;;;;4972840;28;20035;-76
2023/12/14 05:52:56;;;;;;;3.33;3.03;;;5.30;99.90;;;;;;4962570;28;20097;-79
2023/12/14 05:55:22;;;;;;;6.28;2.97;;;5.30;99.90;;;;;;4962489;28;20062;-79
2023/12/14 05:57:50;;;;;;;3.75;3.45;;;5.30;99.90;;;;;;4964462;28;20141;-73
2023/12/14 06:00:18;;;;;;;3.90;3.50;;;5.30;99.90;;;;;;4962075;28;20090;-77
2023/12/14 06:02:43;;;;;;;3.13;2.28;;;5.30;99.90;;;;;;4940600;28;20033;-78
2023/12/14 06:05:09;;;;;;;6.13;3.40;;;5.30;99.90;;;;;;4953990;28;20416;-82
2023/12/14 06:07:35;;;;;;;8.38;2.63;;;5.30;99.90;;;;;;4951785;28;20035;-79
2023/12/14 06:10:01;;;;;;;7.85;3.55;;;5.30;99.90;;;;;;4966717;28;20088;-76
2023/12/14 06:12:27;;;;;;;4.68;3.10;;;5.30;99.90;;;;;;4966655;28;20074;-76
2023/12/14 06:14:52;;;;;;;2.88;2.40;;;5.30;99.90;;;;;;4964446;28;20050;-76
2023/12/14 06:17:18;;;;;;;5.80;3.75;;;5.30;99.90;;;;;;4970557;28;20112;-77
2023/12/14 06:19:43;;;;;;;3.90;2.47;;;5.30;99.90;;;;;;4980930;28;20400;-81
2023/12/14 06:22:09;;;;;;;5.70;2.45;;;5.30;99.90;;;;;;4981532;28;20539;-78
2023/12/14 06:24:34;;;;;;;8.55;3.03;;;5.30;99.90;;;;;;4973152;28;20057;-78
2023/12/14 06:27:00;;;;;;;3.20;2.45;;;5.30;99.90;;;;;;4956596;28;20556;-76
2023/12/14 06:29:26;;;;;;;4.25;2.65;;;5.30;99.90;;;;;;4962118;28;20054;-75
2023/12/14 06:31:52;;;;;;;2.55;1.95;;;5.30;99.90;;;;;;4979462;28;20085;-78
2023/12/14 06:34:17;;;;;;;4.50;3.22;;;5.30;99.90;;;;;;4964696;28;20096;-81
2023/12/14 06:36:44;;;;;;;3.13;2.63;;;5.30;99.90;;;;;;4982138;28;20121;-80
2023/12/14 06:39:10;;;;;;;3.75;2.53;;;5.30;99.90;;;;;;4973086;28;20700;-77
2023/12/14 06:41:36;;;;;;;3.30;2.65;;;5.30;99.90;;;;;;4979520;28;20035;-80
2023/12/14 06:44:02;;;;;;;2.13;1.48;;;5.30;99.90;;;;;;4975294;28;20051;-78
2023/12/14 06:46:28;;;;;;;4.38;3.88;;;5.30;99.90;;;;;;4963162;28;20073;-82
2023/12/14 06:48:55;;;;;;;4.25;2.58;;;5.30;99.90;;;;;;4960328;28;20130;-81
2023/12/14 06:51:21;;;;;;;6.85;3.28;;;5.30;99.90;;;;;;4963581;28;20125;-78
2023/12/14 06:53:47;;;;;;;11.30;4.20;;;5.30;99.90;;;;;;4948705;28;20050;-78
2023/12/14 06:56:13;;;;;;;7.95;2.95;;;5.30;99.90;;;;;;4961597;28;20057;-77
2023/12/14 06:58:41;;;;;;;3.92;2.78;;;5.30;99.90;;;;;;4975967;28;20050;-79
2023/12/14 07:01:07;;;;;;;3.63;3.30;;;5.30;99.90;;;;;;4980870;28;20082;-81
2023/12/14 07:03:33;;;;;;;7.22;2.50;;;5.30;99.90;;;;;;4959554;28;20043;-78
2023/12/14 07:05:58;;;;;;;4.13;2.58;;;5.40;99.90;;;;;;4960828;28;20370;-76
2023/12/14 07:08:25;;;;;;;3.22;3.00;;;5.30;99.90;;;;;;4956574;28;20093;-77
2023/12/14 07:10:50;;;;;;;4.03;3.08;;;5.40;99.90;;;;;;4958111;28;20133;-76
2023/12/14 07:13:16;;;;;;;5.30;3.05;;;5.30;99.90;;;;;;4967900;28;20074;-77
2023/12/14 07:15:42;;;;;;;3.05;2.38;;;5.30;99.90;;;;;;4967063;28;20355;-79
2023/12/14 07:18:07;;;;;;;6.28;3.90;;;5.40;99.90;;;;;;4935967;28;20251;-79
2023/12/14 07:20:33;;;;;;;3.83;2.78;;;5.40;99.90;;;;;;4959674;28;20125;-76
2023/12/14 07:22:58;;;;;;;4.32;3.03;;;5.30;99.90;;;;;;4957834;28;20266;-77
2023/12/14 07:25:24;;;;;;;2.80;2.15;;;5.40;99.90;;;;;;4959134;28;20034;-78
2023/12/14 07:27:50;;;;;;;5.60;2.95;;;5.40;99.90;;;;;;4960631;28;20050;-78
2023/12/14 07:30:16;;;;;;;4.60;3.58;;;5.30;99.90;;;;;;4961326;28;20230;-80
2023/12/14 07:32:42;;;;;;;3.40;2.63;;;5.30;99.90;;;;;;4960616;28;20125;-76
2023/12/14 07:35:08;;;;;;;6.13;3.42;;;5.40;99.90;;;;;;4959535;28;20049;-77
2023/12/14 07:37:34;;;;;;;3.35;2.58;;;5.40;99.90;;;;;;4962663;28;20445;-79
2023/12/14 07:39:59;;;;;;;4.72;2.97;;;5.40;99.90;;;;;;4962114;28;20050;-79
2023/12/14 07:42:25;;;;;;;4.03;2.25;;;5.30;99.90;;;;;;4963546;28;20074;-79
2023/12/14 07:44:51;;;;;;;5.72;4.07;;;5.30;99.90;;;;;;4962555;28;20105;-80
2023/12/14 07:47:16;;;;;;;3.88;3.35;;;5.30;99.90;;;;;;4947092;28;20278;-78
2023/12/14 07:49:42;;;;;;;5.78;2.20;;;5.30;99.90;;;;;;4963154;28;20473;-75
2023/12/14 07:52:08;;;;;;;5.45;4.10;;;5.40;99.90;;;;;;4961634;28;20054;-74
2023/12/14 07:54:34;;;;;;;5.97;3.38;;;5.30;99.90;;;;;;4963034;28;20093;-80
2023/12/14 07:57:00;;;;;;;11.15;3.53;;;5.30;99.90;;;;;;4945887;28;20578;-77
2023/12/14 07:59:26;;;;;;;7.55;4.35;;;5.30;99.90;;;;;;4963632;28;20133;-79
2023/12/14 08:01:51;;;;;;;4.70;2.92;;;5.30;99.90;;;;;;4963689;28;20074;-77
2023/12/14 08:04:17;;;;;;;5.72;2.65;;;5.30;99.90;;;;;;4963975;28;20046;-76
2023/12/14 08:06:42;;;;;;;5.63;2.75;;;5.30;99.90;;;;;;4962525;28;20047;-79
2023/12/14 08:09:08;;;;;;;5.13;3.72;;;5.30;99.90;;;;;;4961344;28;20055;-80
2023/12/14 08:11:34;;;;;;;6.18;2.47;;;5.30;99.90;;;;;;4962365;28;20047;-79
2023/12/14 08:14:00;;;;;;;4.50;2.42;;;5.30;99.90;;;;;;4963544;28;20061;-79
2023/12/14 08:16:25;;;;;;;5.32;3.20;;;5.30;99.90;;;;;;4964160;28;20540;-78
2023/12/14 08:18:51;;;;;;;2.72;2.53;;;5.30;99.90;;;;;;4961876;28;20101;-77
2023/12/14 08:21:18;;;;;;;2.40;1.92;;;5.30;99.90;;;;;;4962417;28;20093;-79
2023/12/14 08:23:44;;;;;;;4.90;3.45;;;5.30;99.90;;;;;;4962868;28;20039;-80
2023/12/14 08:26:12;;;;;;;4.22;3.00;;;5.40;99.90;;;;;;4961761;28;20053;-79
2023/12/14 08:28:40;;;;;;;6.72;3.33;;;5.40;99.90;;;;;;4961869;28;20054;-77
2023/12/14 08:31:06;;;;;;;6.20;3.67;;;5.40;99.90;;;;;;4962919;28;20441;-77
2023/12/14 08:33:31;;;;;;;4.00;2.45;;;5.40;99.90;;;;;;4962064;28;20086;-81
2023/12/14 08:35:58;;;;;;;9.05;2.75;;;5.40;99.90;;;;;;4961174;28;20595;-80
2023/12/14 08:38:24;;;;;;;5.82;3.17;;;5.40;99.90;;;;;;4962876;28;20126;-78
2023/12/14 08:40:50;;;;;;;5.15;3.45;;;5.40;99.90;;;;;;4961474;28;20055;-76
2023/12/14 08:43:16;;;;;;;7.75;5.50;;;5.40;99.90;;;;;;4961914;28;20039;-78
2023/12/14 08:45:42;;;;;;;4.82;4.15;;;5.40;99.90;;;;;;4961811;28;20047;-80
2023/12/14 08:48:07;;;;;;;10.05;3.10;;;5.40;99.90;;;;;;4961619;28;20047;-80
2023/12/14 08:50:33;;;;;;;4.13;2.92;;;5.40;99.90;;;;;;4963145;28;20054;-79
2023/12/14 08:52:59;;;;;;;5.13;3.47;;;5.40;99.90;;;;;;4960987;28;20544;-78
2023/12/14 08:55:25;;;;;;;5.38;3.83;;;5.40;99.90;;;;;;4961777;28;20145;-78
2023/12/14 08:57:51;;;;;;;12.48;4.65;;;5.50;99.90;;;;;;4960922;28;20042;-76
2023/12/14 09:00:17;;;;;;;6.32;3.58;;;5.50;99.90;;;;;;4961712;28;20053;-79
2023/12/14 09:02:45;;;;;;;6.75;3.90;;;5.50;99.90;;;;;;4945690;28;20266;-80
2023/12/14 09:05:12;;;;;;;4.95;3.83;;;5.50;99.90;;;;;;4977306;28;20097;-77
2023/12/14 09:07:38;;;;;;;7.07;3.83;;;5.50;99.90;;;;;;4960004;28;20086;-76
2023/12/14 09:10:04;;;;;;;4.18;3.33;;;5.50;99.90;;;;;;4962477;28;20043;-78
2023/12/14 09:12:30;;;;;;;9.38;4.75;;;5.60;99.90;;;;;;4945604;28;20054;-78
2023/12/14 09:14:55;;;;;;;5.20;2.80;;;5.50;99.90;;;;;;4961889;28;20453;-79
2023/12/14 09:17:21;;;;;;;6.38;3.17;;;5.50;99.90;;;;;;4961323;28;20605;-78
2023/12/14 09:19:47;;;;;;;5.15;3.53;;;5.50;99.90;;;;;;4962650;28;20306;-76
2023/12/14 09:22:12;;;;;;;9.27;4.00;;;5.50;99.90;;;;;;4961012;28;20448;-78
2023/12/14 09:24:38;;;;;;;4.72;3.50;;;5.40;99.90;;;;;;4960909;28;20449;-78
2023/12/14 09:27:04;;;;;;;5.30;2.92;;;5.50;99.90;;;;;;4960834;28;20809;-79
2023/12/14 09:29:29;;;;;;;5.30;3.70;;;5.40;99.90;;;;;;4945363;28;20043;-79
2023/12/14 09:31:55;;;;;;;7.97;3.55;;;5.40;99.90;;;;;;4960553;28;20047;-78
2023/12/14 09:34:21;;;;;;;4.13;3.28;;;5.30;99.90;;;;;;4962579;28;20047;-78
2023/12/14 09:36:46;;;;;;;4.63;3.33;;;5.30;99.90;;;;;;4961411;28;20049;-78
2023/12/14 09:39:12;;;;;;;6.38;2.83;;;5.30;99.90;;;;;;4960663;28;20047;-79
2023/12/14 09:41:38;;;;;;;7.63;2.65;;;5.30;99.90;;;;;;4960982;28;20658;-79
2023/12/14 09:44:06;;;;;;;6.35;2.95;;;5.30;99.90;;;;;;4961597;28;20043;-77
2023/12/14 09:46:34;;;;;;;6.43;3.50;;;5.30;99.90;;;;;;4961617;28;20351;-76
2023/12/14 09:49:01;;;;;;;3.88;2.90;;;5.30;99.90;;;;;;4960145;28;20078;-78
2023/12/14 09:51:27;;;;;;;4.78;2.55;;;5.30;99.90;;;;;;4962510;28;20051;-80
2023/12/14 09:53:57;;;;;;;6.35;4.70;;;5.30;99.90;;;;;;4960215;28;20324;-76
2023/12/14 09:56:27;;;;;;;10.98;4.25;;;5.40;99.90;;;;;;4960763;28;20545;-76
2023/12/14 09:58:53;;;;;;;7.43;3.60;;;5.50;99.90;;;;;;4960805;28;20106;-79
2023/12/14 10:01:26;;;;;;;5.15;3.13;;;5.50;99.90;;;;;;4944960;28;20121;-81
2023/12/14 10:04:15;;;;;;;5.28;2.53;;;5.50;99.90;;;;;;4961679;28;20043;-77
2023/12/14 10:06:43;;;;;;;6.30;4.68;;;5.50;99.90;;;;;;4958942;28;20544;-77
2023/12/14 10:09:09;;;;;;;4.85;3.75;;;5.60;99.90;;;;;;4961795;28;20050;-80
2023/12/14 10:11:38;;;;;;;5.97;3.65;;;5.60;99.90;;;;;;4960454;28;20387;-80
2023/12/14 10:14:22;;;;;;;7.32;3.80;;;5.60;99.90;;;;;;4960986;28;20046;-78
2023/12/14 10:16:49;;;;;;;2.80;2.50;;;5.70;99.90;;;;;;4960556;28;20116;-79
2023/12/14 10:19:17;;;;;;;4.43;4.03;;;5.70;99.90;;;;;;4959763;28;20051;-79
2023/12/14 10:21:42;;;;;;;9.85;2.95;;;5.70;99.90;;;;;;4959420;28;20556;-80
2023/12/14 10:24:08;;;;;;;8.50;3.78;;;5.70;99.90;;;;;;4959832;28;20043;-81
2023/12/14 10:26:35;;;;;;;2.83;1.92;;;5.80;99.90;;;;;;4961206;28;20050;-77
2023/12/14 10:29:04;;;;;;;4.65;3.58;;;5.80;99.90;;;;;;4943786;28;20093;-78
2023/12/14 10:31:30;;;;;;;6.93;2.60;;;5.80;99.90;;;;;;4960301;28;20097;-79
2023/12/14 10:33:56;;;;;;;8.38;3.80;;;5.80;99.90;;;;;;4960210;28;20031;-80
2023/12/14 10:36:25;;;;;;;5.55;3.38;;;5.80;99.90;;;;;;4962059;28;20066;-79
2023/12/14 10:38:56;;;;;;;3.60;2.92;;;5.80;99.90;;;;;;4959000;28;20076;-77
2023/12/14 10:41:23;;;;;;;5.28;3.35;;;5.90;99.90;;;;;;4959917;28;20393;-80
2023/12/14 10:43:53;;;;;;;6.88;3.30;;;5.90;99.90;;;;;;4961641;28;20326;-81
2023/12/14 10:46:20;;;;;;;4.70;2.90;;;5.90;99.90;;;;;;4960418;28;20082;-77
2023/12/14 10:48:49;;;;;;;7.50;3.90;;;5.90;99.90;;;;;;4961380;28;20133;-76
2023/12/14 10:51:16;;;;;;;3.25;2.95;;;5.90;99.90;;;;;;4960394;28;20125;-80
2023/12/14 10:53:47;;;;;;;6.70;5.40;;;5.90;99.90;;;;;;4942734;28;20055;-79
2023/12/14 10:56:13;;;;;;;4.88;3.88;;;5.90;99.90;;;;;;4959465;28;20442;-78
2023/12/14 10:58:46;;;;;;;6.20;3.33;;;5.90;99.90;;;;;;4961036;28;20109;-78
2023/12/14 11:01:15;;;;;;;5.03;2.83;;;5.90;99.90;;;;;;4959933;28;20263;-78
2023/12/14 11:03:41;;;;;;;3.90;2.95;;;5.90;99.90;;;;;;4959272;28;20324;-77
2023/12/14 11:06:37;;;;;;;7.80;3.72;;;5.90;99.90;;;;;;4961032;28;20046;-78
2023/12/14 11:09:10;;;;;;;5.47;3.38;;;5.90;99.90;;;;;;4955557;28;20425;-78
2023/12/14 11:11:47;;;;;;;3.65;2.70;;;5.90;99.90;;;;;;4963770;28;20379;-78
2023/12/14 11:14:13;;;;;;;6.00;2.90;;;5.90;99.90;;;;;;4963231;28;20187;-77
2023/12/14 11:16:46;;;;;;;5.03;3.83;;;5.90;99.90;;;;;;4963231;28;20065;-76
2023/12/14 11:19:20;;;;;;;5.93;2.97;;;5.90;99.90;;;;;;4963321;28;20129;-80
2023/12/14 11:22:08;;;;;;;5.93;3.58;;;5.90;99.90;;;;;;4963344;28;20125;-77
2023/12/14 11:24:40;;;;;;;3.70;2.45;;;5.90;99.90;;;;;;4962804;28;20109;-76
2023/12/14 11:27:07;;;;;;;6.97;4.03;;;5.90;99.90;;;;;;4963606;28;20093;-79
2023/12/14 11:29:35;;;;;;;4.45;2.67;;;5.90;99.90;;;;;;4963155;28;20043;-78
2023/12/14 11:32:01;;;;;;;3.35;2.38;;;5.90;99.90;;;;;;4962521;28;20077;-78
2023/12/14 11:34:27;;;;;;;5.10;3.65;;;6.00;99.90;;;;;;4963035;28;20492;-78
2023/12/14 11:36:54;;;;;;;6.95;2.97;;;5.90;99.90;;;;;;4963556;28;20038;-80
2023/12/14 11:39:21;;;;;;;6.18;2.92;;;5.90;99.90;;;;;;4963045;28;20105;-80
2023/12/14 11:42:04;;;;;;;7.57;4.10;;;5.90;99.90;;;;;;4963463;28;20126;-78
2023/12/14 11:44:30;;;;;;;5.22;3.00;;;6.00;99.90;;;;;;4962720;28;20053;-75
2023/12/14 11:46:56;;;;;;;7.80;4.53;;;5.90;99.90;;;;;;4962417;28;20378;-78
2023/12/14 11:49:26;;;;;;;10.13;3.67;;;6.00;99.90;;;;;;4962769;28;20043;-75
2023/12/14 11:51:55;;;;;;;7.35;3.88;;;6.00;99.90;;;;;;4961215;28;20102;-80
2023/12/14 11:54:21;;;;;;;5.68;3.90;;;6.00;99.90;;;;;;4962715;28;20039;-78
2023/12/14 11:56:48;;;;;;;4.47;3.60;;;6.00;99.90;;;;;;4963394;28;20121;-78
2023/12/14 11:59:18;;;;;;;9.23;2.65;;;6.00;99.90;;;;;;4963123;28;20085;-77
2023/12/14 12:01:58;;;;;;;5.13;2.65;;;6.00;99.90;;;;;;4962986;28;20042;-79
2023/12/14 12:04:24;;;;;;;7.32;4.13;;;6.00;99.90;;;;;;4962288;28;20039;-79
2023/12/14 12:06:58;;;;;;;8.05;3.95;;;6.00;99.90;;;;;;4963148;28;20045;-75
2023/12/14 12:09:42;;;;;;;4.65;3.65;;;6.00;99.90;;;;;;4981780;28;20047;-76
2023/12/14 12:12:09;;;;;;;5.82;3.20;;;6.00;99.90;;;;;;4963316;28;20050;-77
2023/12/14 12:14:35;;;;;;;3.90;3.33;;;6.00;99.90;;;;;;4963340;28;20145;-75
2023/12/14 12:17:01;;;;;;;4.57;2.70;;;6.00;99.90;;;;;;4962326;28;20042;-79
2023/12/14 12:19:27;;;;;;;4.10;3.47;;;6.00;99.90;;;;;;4962594;28;20049;-76
2023/12/14 12:21:52;;;;;;;12.13;3.40;;;6.00;99.90;;;;;;4953340;28;20066;-75
2023/12/14 12:24:18;;;;;;;4.10;2.47;;;6.10;99.90;;;;;;4960806;28;20081;-75
2023/12/14 12:26:43;;;;;;;2.72;1.88;;;6.10;99.90;;;;;;4968578;28;20034;-79
2023/12/14 12:29:09;;;;;;;6.90;3.75;;;6.10;99.90;;;;;;4971742;28;20505;-75
2023/12/14 12:31:35;;;;;;;7.05;3.95;;;6.00;99.90;;;;;;4962506;28;20034;-76
2023/12/14 12:34:00;;;;;;;8.32;3.38;;;6.10;99.90;;;;;;4967927;28;20039;-81
2023/12/14 12:36:26;;;;;;;6.97;3.28;;;6.10;99.90;;;;;;4946520;28;20043;-79
2023/12/14 12:38:52;;;;;;;7.20;3.38;;;6.10;99.90;;;;;;4978036;28;20051;-78
2023/12/14 12:41:18;;;;;;;4.57;2.78;;;6.10;99.90;;;;;;4949760;28;20039;-81
2023/12/14 12:43:44;;;;;;;5.43;2.88;;;6.20;99.90;;;;;;4966241;28;20095;-77
2023/12/14 12:46:10;;;;;;;5.10;3.30;;;6.10;99.90;;;;;;4962650;28;20047;-78
2023/12/14 12:48:36;;;;;;;4.38;3.15;;;6.20;99.90;;;;;;4961508;28;20046;-79
2023/12/14 12:51:02;;;;;;;5.68;2.78;;;6.20;99.90;;;;;;4964257;28;20177;-78
2023/12/14 12:53:28;;;;;;;4.45;3.67;;;6.20;99.90;;;;;;4962277;28;20118;-76